Time;durP1;ratioP1;P1;durP2;ratioP2;P2;SDS_P1;SDS_P2;PMS_P1;PMS_P2;Temp;Humidity;BMP_temperature;BMP_pressure;BME280_temperature;BME280_humidity;BME280_pressure;Samples;Min_cycle;Max_cycle;Signal;HPM_P1;HPM_P2
2022/09/24 00:02:18;;;;;;;34.70;32.30;;;;;;;7.61;100.00;101357.53;6246491;22;20023;-83
2022/09/24 00:04:46;;;;;;;34.45;32.20;;;;;;;7.56;100.00;101358.03;6247054;23;20020;-82
2022/09/24 00:07:26;;;;;;;35.03;32.75;;;;;;;7.52;100.00;101359.38;6247191;23;20082;-82
2022/09/24 00:09:55;;;;;;;36.80;34.40;;;;;;;7.42;100.00;101362.22;6247367;23;20496;-84
2022/09/24 00:12:24;;;;;;;33.28;30.90;;;;;;;7.04;100.00;101356.66;6247110;23;20028;-85
2022/09/24 00:14:55;;;;;;;37.25;34.72;;;;;;;7.39;100.00;101359.91;6247483;23;20020;-83
2022/09/24 00:17:22;;;;;;;33.67;31.38;;;;;;;7.19;100.00;101353.34;6247080;23;20024;-83
2022/09/24 00:19:49;;;;;;;40.58;37.65;;;;;;;7.16;100.00;101353.69;6246570;23;20130;-82
2022/09/24 00:22:18;;;;;;;39.33;36.42;;;;;;;6.93;100.00;101366.75;6246997;23;20381;-86
2022/09/24 00:27:31;;;;;;;35.80;33.25;;;;;;;6.84;100.00;101361.47;6247530;23;20035;-82
2022/09/24 00:30:03;;;;;;;38.58;35.88;;;;;;;6.91;100.00;101353.72;6247461;23;20384;-82
2022/09/24 00:32:36;;;;;;;39.20;36.53;;;;;;;6.66;100.00;101358.19;6247307;23;20021;-83
2022/09/24 00:35:08;;;;;;;37.00;34.30;;;;;;;6.69;100.00;101359.63;6246705;23;20086;-82
2022/09/24 00:37:37;;;;;;;35.55;33.05;;;;;;;6.66;100.00;101352.91;6247074;23;20020;-81
2022/09/24 00:40:14;;;;;;;38.08;35.42;;;;;;;6.74;100.00;101350.25;6247056;23;20020;-81
2022/09/24 00:42:59;;;;;;;;;;;;;;;;;;;;;
2022/09/24 00:45:33;;;;;;;41.92;38.90;;;;;;;6.83;100.00;101341.31;6246801;23;20083;-84
2022/09/24 00:48:06;;;;;;;36.78;34.13;;;;;;;6.23;100.00;101338.97;6246833;23;20035;-85
2022/09/24 00:50:35;;;;;;;37.13;34.63;;;;;;;6.32;100.00;101334.53;6246670;23;20098;-84
2022/09/24 00:53:08;;;;;;;37.33;34.78;;;;;;;6.50;100.00;101334.41;6246746;23;20020;-86
2022/09/24 00:55:38;;;;;;;37.42;35.03;;;;;;;6.78;100.00;101338.38;6246474;23;20020;-84
2022/09/24 00:58:09;;;;;;;32.88;30.67;;;;;;;6.68;100.00;101345.63;6246727;23;20024;-86
2022/09/24 01:00:46;;;;;;;33.22;30.92;;;;;;;6.18;100.00;101338.66;6246697;22;20020;-86
2022/09/24 01:03:19;;;;;;;40.15;37.20;;;;;;;6.53;100.00;101353.38;6246239;23;20032;-83
2022/09/24 01:06:05;;;;;;;37.13;34.60;;;;;;;6.38;100.00;101344.44;6246823;23;20017;-83
2022/09/24 01:08:32;;;;;;;39.40;36.63;;;;;;;6.66;100.00;101344.97;6246612;23;20032;-85
2022/09/24 01:11:28;;;;;;;38.72;36.00;;;;;;;6.80;100.00;101346.13;6246975;23;20031;-85
2022/09/24 01:14:40;;;;;;;36.30;33.75;;;;;;;6.85;100.00;101339.34;6234660;23;20098;-84
2022/09/24 01:17:25;;;;;;;31.45;29.27;;;;;;;5.91;100.00;101337.06;6112703;23;20101;-86
2022/09/24 01:20:29;;;;;;;35.78;33.28;;;;;;;6.35;100.00;101345.59;6245363;23;20328;-81
2022/09/24 01:23:29;;;;;;;36.85;33.97;;;;;;;6.58;100.00;101339.69;6226690;23;20019;-82
2022/09/24 01:29:40;;;;;;;36.15;33.45;;;;;;;6.23;100.00;101344.25;6243754;23;20488;-84
2022/09/24 01:32:20;;;;;;;38.55;35.47;;;;;;;6.50;100.00;101340.50;6181755;23;20126;-86
2022/09/24 01:35:00;;;;;;;39.13;36.75;;;;;;;6.41;100.00;101350.25;6246387;23;20095;-86
2022/09/24 01:37:41;;;;;;;41.58;39.03;;;;;;;6.30;100.00;101340.00;6246281;23;20437;-82
2022/09/24 01:40:30;;;;;;;;;;;;;;;;;;;;;
2022/09/24 01:43:19;;;;;;;38.72;35.92;;;;;;;6.49;100.00;101351.22;6246296;23;20464;-83
2022/09/24 01:45:50;;;;;;;36.78;33.92;;;;;;;6.14;100.00;101346.06;6246760;23;20078;-83
2022/09/24 01:48:22;;;;;;;37.97;35.45;;;;;;;6.26;100.00;101348.38;6246324;23;20078;-83
2022/09/24 01:50:58;;;;;;;40.47;37.75;;;;;;;6.43;100.00;101352.69;6246027;23;20023;-84
2022/09/24 01:53:29;;;;;;;41.22;38.22;;;;;;;6.02;100.00;101344.72;6246073;23;20048;-86
2022/09/24 01:56:02;;;;;;;42.55;39.65;;;;;;;5.84;100.00;101352.72;6245860;23;20035;-84
2022/09/24 01:58:39;;;;;;;35.20;32.78;;;;;;;6.02;100.00;101344.72;6246349;23;20016;-83
2022/09/24 02:01:26;;;;;;;33.78;31.58;;;;;;;6.04;100.00;101355.91;6225689;22;20433;-85
2022/09/24 02:04:20;;;;;;;37.85;35.25;;;;;;;6.31;100.00;101348.72;6214914;23;20061;-84
2022/09/24 02:06:54;;;;;;;37.10;34.50;;;;;;;6.46;100.00;101357.66;6215933;23;20016;-86
2022/09/24 02:09:43;;;;;;;34.72;32.38;;;;;;;6.23;100.00;101353.97;6215880;23;20377;-83
2022/09/24 02:12:42;;;;;;;38.92;36.38;;;;;;;5.99;100.00;101354.75;6215862;23;20100;-85
2022/09/24 02:15:24;;;;;;;37.95;35.35;;;;;;;5.96;100.00;101351.47;6215659;23;20025;-84
2022/09/24 02:18:02;;;;;;;36.50;33.92;;;;;;;6.05;100.00;101354.09;6215105;23;20016;-82
2022/09/24 02:20:41;;;;;;;39.88;37.28;;;;;;;6.02;100.00;101357.06;6214325;23;20032;-83
2022/09/24 02:23:23;;;;;;;39.25;36.75;;;;;;;5.97;100.00;101352.28;6214723;23;20024;-82
2022/09/24 02:26:05;;;;;;;38.58;34.58;;;;;;;6.05;100.00;101354.94;6215439;23;20096;-83
2022/09/24 02:28:39;;;;;;;35.43;32.83;;;;;;;6.37;100.00;101364.72;6214811;23;20035;-86
2022/09/24 02:31:12;;;;;;;37.90;35.05;;;;;;;6.01;100.00;101358.06;6215339;23;20276;-83
2022/09/24 02:36:39;;;;;;;35.92;33.13;;;;;;;5.83;100.00;101371.31;6215681;23;19930;-82
2022/09/24 02:39:27;;;;;;;38.30;35.75;;;;;;;6.24;100.00;101367.03;6215205;23;20028;-85
2022/09/24 02:42:01;;;;;;;34.40;31.98;;;;;;;5.95;100.00;101368.25;6215672;23;20090;-82
2022/09/24 02:44:32;;;;;;;32.10;29.77;;;;;;;5.46;100.00;101381.19;6215345;23;20086;-85
2022/09/24 02:47:02;;;;;;;38.22;35.30;;;;;;;6.06;100.00;101371.59;6215836;23;20039;-82
2022/09/24 02:50:03;;;;;;;;;;;;;;;;;;;;;
2022/09/24 02:52:43;;;;;;;44.15;40.58;;;;;;;5.78;100.00;101371.78;6150818;23;20088;-83
2022/09/24 02:55:20;;;;;;;42.47;39.38;;;;;;;5.77;100.00;101377.22;6216638;23;20016;-86
2022/09/24 02:57:59;;;;;;;45.33;42.13;;;;;;;5.52;100.00;101374.47;6217054;23;20021;-86
2022/09/24 03:03:28;;;;;;;37.63;35.05;;;;;;;5.72;100.00;101382.97;6155724;23;20026;-83
2022/09/24 03:06:11;;;;;;;;;;;;;;;;;;;;;
2022/09/24 03:08:40;;;;;;;;;;;;;;;5.62;100.00;101382.25;6157726;23;20100;-87
2022/09/24 03:11:31;;;;;;;39.50;36.83;;;;;;;5.92;100.00;101394.06;6157161;23;19988;-83
2022/09/24 03:14:02;;;;;;;39.95;37.15;;;;;;;5.89;100.00;101389.94;6157146;23;20065;-82
2022/09/24 03:16:32;;;;;;;38.10;35.60;;;;;;;5.93;100.00;101388.69;6156507;23;20037;-82
2022/09/24 03:19:24;;;;;;;42.17;39.53;;;;;;;5.53;100.00;101396.34;6157030;23;20025;-84
2022/09/24 03:24:59;;;;;;;36.25;33.65;;;;;;;5.57;100.00;101395.06;6153068;23;20026;-82
2022/09/24 03:27:57;;;;;;;37.25;34.45;;;;;;;5.66;100.00;101402.88;6157214;23;20024;-82
2022/09/24 03:33:29;;;;;;;38.47;35.57;;;;;;;5.73;100.00;101406.53;6156991;23;20091;-84
2022/09/24 03:36:12;;;;;;;39.83;36.85;;;;;;;5.95;100.00;101401.72;6156859;23;20261;-82
2022/09/24 03:38:44;;;;;;;37.85;35.13;;;;;;;5.73;100.00;101417.06;6157234;23;20104;-81
2022/09/24 03:44:18;;;;;;;36.70;33.80;;;;;;;6.10;100.00;101410.66;6153989;23;20091;-82
2022/09/24 03:47:08;;;;;;;35.55;33.03;;;;;;;5.92;100.00;101423.09;6157260;23;20013;-84
2022/09/24 03:49:48;;;;;;;35.47;32.75;;;;;;;6.15;100.00;101426.84;6145099;23;20049;-83
2022/09/24 03:52:29;;;;;;;39.28;36.50;;;;;;;6.16;100.00;101425.84;6157172;23;20022;-86
2022/09/24 03:54:57;;;;;;;38.80;36.10;;;;;;;6.30;100.00;101429.69;6153773;23;20056;-86
2022/09/24 03:57:35;;;;;;;38.38;35.65;;;;;;;6.31;100.00;101431.34;6103775;23;20083;-83
2022/09/24 04:00:17;;;;;;;38.63;35.92;;;;;;;6.48;100.00;101439.31;6032592;23;20061;-82
2022/09/24 04:03:01;;;;;;;33.50;31.20;;;;;;;6.28;100.00;101436.13;6171432;23;20029;-84
2022/09/24 04:05:35;;;;;;;32.65;30.10;;;;;;;6.24;100.00;101443.53;6183919;23;20430;-83
2022/09/24 04:11:00;;;;;;;32.03;29.77;;;;;;;6.22;100.00;101429.66;6183048;23;20099;-86
2022/09/24 04:13:33;;;;;;;34.63;32.05;;;;;;;6.28;100.00;101449.31;6186420;23;20092;-84
2022/09/24 04:16:18;;;;;;;34.28;31.67;;;;;;;5.99;100.00;101447.03;6186283;23;20053;-86
2022/09/24 04:18:49;;;;;;;34.75;32.45;;;;;;;5.88;100.00;101458.66;6186729;23;20051;-83
2022/09/24 04:21:20;;;;;;;35.58;33.08;;;;;;;6.31;100.00;101459.53;6186462;23;20021;-82
2022/09/24 04:23:53;;;;;;;33.47;31.08;;;;;;;6.08;100.00;101472.47;6186370;23;20032;-82
2022/09/24 04:26:26;;;;;;;35.83;33.28;;;;;;;6.41;100.00;101460.22;6185529;23;20016;-85
2022/09/24 04:29:12;;;;;;;32.15;29.95;;;;;;;6.58;100.00;101464.56;6185847;23;20017;-82
2022/09/24 04:31:44;;;;;;;34.72;32.03;;;;;;;6.77;100.00;101460.81;6183496;23;20099;-86
2022/09/24 04:34:16;;;;;;;36.28;33.40;;;;;;;6.55;100.00;101470.16;6186281;23;20087;-84
2022/09/24 04:36:51;;;;;;;37.15;34.65;;;;;;;7.10;100.00;101469.59;6185270;23;20023;-84
2022/09/24 04:52:28;;;;;;;40.33;37.22;;;;;;;7.57;100.00;101476.84;5124289;27;20403;-84
2022/09/24 04:54:59;;;;;;;40.30;37.30;;;;;;;7.72;100.00;101484.09;5106740;28;20071;-88
2022/09/24 04:57:31;;;;;;;40.10;37.05;;;;;;;7.80;100.00;101482.22;5107052;28;20044;-83
2022/09/24 04:59:58;;;;;;;40.72;37.78;;;;;;;7.79;100.00;101488.53;5109083;28;20047;-86
2022/09/24 05:02:25;;;;;;;38.10;35.35;;;;;;;8.16;100.00;101487.09;5107859;28;20047;-87
2022/09/24 05:04:51;;;;;;;38.80;35.80;;;;;;;8.26;100.00;101497.50;5109860;28;20051;-86
2022/09/24 05:07:22;;;;;;;38.97;36.13;;;;;;;8.44;100.00;101494.63;5108792;28;20529;-85
2022/09/24 05:09:56;;;;;;;41.05;38.45;;;;;;;8.56;100.00;101489.75;5109826;28;20052;-86
2022/09/24 05:12:23;;;;;;;41.30;38.90;;;;;;;8.87;100.00;101489.75;5110536;28;20048;-86
2022/09/24 05:14:49;;;;;;;39.83;37.35;;;;;;;9.03;100.00;101489.63;5109373;28;20055;-87
2022/09/24 05:17:16;;;;;;;37.08;34.67;;;;;;;9.31;100.00;101489.09;5109357;28;20481;-84
2022/09/24 05:19:43;;;;;;;37.25;34.42;;;;;;;9.25;100.00;101485.31;5110316;28;20044;-83
2022/09/24 05:22:10;;;;;;;34.92;32.72;;;;;;;9.28;100.00;101492.09;5108378;28;20100;-84
2022/09/24 05:24:38;;;;;;;35.55;33.25;;;;;;;9.15;100.00;101496.16;5109953;28;20059;-85
2022/09/24 05:27:09;;;;;;;38.67;36.28;;;;;;;9.37;100.00;101502.44;5108269;28;20063;-88
2022/09/24 05:29:37;;;;;;;38.60;36.10;;;;;;;9.49;100.00;101500.19;5110146;28;20140;-84
2022/09/24 05:32:05;;;;;;;37.70;35.40;;;;;;;9.64;100.00;101506.34;5108900;28;20054;-83
2022/09/24 05:34:32;;;;;;;37.58;35.17;;;;;;;9.89;100.00;101502.63;5109071;28;20050;-84
2022/09/24 05:36:59;;;;;;;37.25;34.97;;;;;;;9.83;100.00;101506.84;5106709;28;20051;-82
2022/09/24 05:39:26;;;;;;;34.50;32.13;;;;;;;9.89;100.00;101498.16;5108646;28;20434;-82
2022/09/24 05:41:57;;;;;;;35.78;33.42;;;;;;;10.17;100.00;101495.69;5103385;28;20048;-84
2022/09/24 05:44:24;;;;;;;37.55;35.35;;;;;;;9.97;100.00;101499.91;5107479;28;20051;-82
2022/09/24 05:46:53;;;;;;;34.60;32.25;;;;;;;9.90;100.00;101494.50;5108526;28;20048;-85
2022/09/24 05:49:20;;;;;;;33.47;31.15;;;;;;;9.77;100.00;101500.44;5099303;28;20052;-83
2022/09/24 05:51:50;;;;;;;33.05;30.95;;;;;;;9.82;100.00;101500.72;5095055;28;20060;-84
2022/09/24 05:54:20;;;;;;;32.55;30.55;;;;;;;10.21;100.00;101506.75;5092930;28;20117;-83
2022/09/24 05:56:47;;;;;;;34.22;31.92;;;;;;;10.38;100.00;101515.38;5092484;28;20137;-84
2022/09/24 05:59:23;;;;;;;33.33;31.15;;;;;;;10.48;100.00;101514.09;5087390;28;20040;-87
2022/09/24 06:01:50;;;;;;;34.58;32.40;;;;;;;10.71;100.00;101508.66;5081209;28;20044;-83
2022/09/24 06:04:18;;;;;;;32.58;30.38;;;;;;;10.59;100.00;101525.22;5090872;28;20045;-85
2022/09/24 06:06:46;;;;;;;32.80;30.92;;;;;;;11.14;100.00;101524.63;5096082;28;20132;-84
2022/09/24 06:09:13;;;;;;;33.17;31.10;;;;;;;10.75;100.00;101530.34;5092716;28;20058;-87
2022/09/24 06:11:42;;;;;;;34.17;32.08;;;;;;;11.40;100.00;101523.19;5092958;28;20135;-87
2022/09/24 06:14:11;;;;;;;33.25;31.15;;;;;;;11.24;100.00;101533.09;5090190;28;20047;-86
2022/09/24 06:16:40;;;;;;;36.13;33.83;;;;;;;11.79;100.00;101538.66;5093454;28;20088;-83
2022/09/24 06:19:08;;;;;;;35.72;33.53;;;;;;;12.21;100.00;101541.44;5090725;28;20051;-85
2022/09/24 06:21:36;;;;;;;34.78;32.67;;;;;;;12.15;100.00;101546.50;5091562;28;20048;-85
2022/09/24 06:24:04;;;;;;;32.63;30.50;;;;;;;12.09;100.00;101549.13;5084999;28;20048;-87
2022/09/24 06:26:31;;;;;;;33.13;31.02;;;;;;;13.11;100.00;101547.50;5076677;28;20114;-84
2022/09/24 06:29:02;;;;;;;31.60;29.52;;;;;;;12.67;100.00;101546.13;5088357;28;20534;-83
2022/09/24 06:31:29;;;;;;;33.00;30.90;;;;;;;11.90;100.00;101548.81;5095751;28;20059;-85
2022/09/24 06:33:59;;;;;;;32.45;30.05;;;;;;;11.51;100.00;101540.50;5090508;28;20044;-87
2022/09/24 06:36:26;;;;;;;32.60;30.60;;;;;;;11.56;100.00;101554.03;5093433;28;20062;-83
2022/09/24 06:38:57;;;;;;;32.30;30.40;;;;;;;11.74;100.00;101546.44;5087249;28;20052;-83
2022/09/24 06:41:24;;;;;;;33.03;30.92;;;;;;;11.56;100.00;101551.38;5089237;28;20123;-87
2022/09/24 06:43:54;;;;;;;33.47;31.17;;;;;;;11.95;100.00;101558.88;5085030;28;20063;-86
2022/09/24 06:46:24;;;;;;;32.17;30.02;;;;;;;11.24;100.00;101557.03;5087079;28;20056;-84
2022/09/24 06:48:53;;;;;;;33.03;30.75;;;;;;;11.69;100.00;101559.47;5084916;28;20563;-83
2022/09/24 06:51:24;;;;;;;33.70;31.65;;;;;;;12.26;100.00;101566.44;5095043;28;20507;-83
2022/09/24 06:53:51;;;;;;;33.50;31.10;;;;;;;12.30;100.00;101566.88;5091265;28;20040;-84
2022/09/24 06:56:18;;;;;;;33.30;31.17;;;;;;;12.46;100.00;101565.72;5092066;28;20084;-82
2022/09/24 06:58:45;;;;;;;33.92;31.73;;;;;;;12.58;100.00;101566.81;5095271;28;20117;-83
2022/09/24 07:01:18;;;;;;;33.47;31.38;;;;;;;13.21;100.00;101570.09;5092435;28;20537;-82
2022/09/24 07:03:45;;;;;;;32.90;30.80;;;;;;;13.50;100.00;101576.94;5079007;28;20040;-82
2022/09/24 07:06:11;;;;;;;33.65;31.30;;;;;;;13.65;100.00;101575.91;5092775;28;20047;-81
2022/09/24 07:08:42;;;;;;;32.78;30.77;;;;;;;14.69;100.00;101577.78;5094331;28;20500;-83
2022/09/24 07:11:14;;;;;;;34.35;31.73;;;;;;;14.43;100.00;101578.66;5087049;28;20413;-86
2022/09/24 07:13:41;;;;;;;34.17;31.80;;;;;;;13.25;100.00;101583.88;5079393;28;20052;-81
2022/09/24 07:16:09;;;;;;;34.90;32.50;;;;;;;13.10;100.00;101589.38;5088151;28;20404;-83
2022/09/24 07:18:36;;;;;;;33.10;31.08;;;;;;;13.65;100.00;101587.41;5091370;28;20492;-85
2022/09/24 07:21:03;;;;;;;33.80;31.50;;;;;;;12.91;100.00;101590.09;5095617;28;20040;-85
2022/09/24 07:23:29;;;;;;;32.13;30.00;;;;;;;14.10;100.00;101579.59;5094657;28;20377;-85
2022/09/24 07:25:58;;;;;;;33.70;31.40;;;;;;;12.70;100.00;101585.72;5092949;28;20104;-83
2022/09/24 07:28:25;;;;;;;33.40;31.30;;;;;;;12.71;100.00;101588.19;5093299;28;20423;-83
2022/09/24 07:30:57;;;;;;;34.53;32.13;;;;;;;13.26;100.00;101593.53;5089337;28;20056;-84
2022/09/24 07:33:24;;;;;;;33.60;31.50;;;;;;;13.11;100.00;101588.34;5094363;28;20127;-86
2022/09/24 07:35:51;;;;;;;33.50;31.40;;;;;;;13.24;100.00;101590.19;5094187;28;20121;-84
2022/09/24 07:38:18;;;;;;;33.17;30.77;;;;;;;13.94;100.00;101585.34;5094465;28;20056;-84
2022/09/24 07:40:44;;;;;;;34.28;32.08;;;;;;;14.27;100.00;101579.94;5093876;28;20124;-87
2022/09/24 07:43:13;;;;;;;35.17;32.97;;;;;;;13.96;100.00;101583.28;5086466;28;20535;-85
2022/09/24 07:45:40;;;;;;;36.92;34.72;;;;;;;13.96;100.00;101580.63;5091864;28;20431;-85
2022/09/24 07:48:07;;;;;;;33.95;31.63;;;;;;;14.59;100.00;101585.44;5089620;28;20109;-86
2022/09/24 07:50:39;;;;;;;34.72;32.53;;;;;;;13.74;100.00;101586.19;5081179;28;20048;-84
2022/09/24 07:53:06;;;;;;;35.00;32.57;;;;;;;15.03;100.00;101575.75;5079992;28;20044;-85
2022/09/24 07:55:38;;;;;;;35.08;32.75;;;;;;;14.93;100.00;101578.91;5080561;28;20045;-85
2022/09/24 07:58:04;;;;;;;36.15;33.45;;;;;;;15.53;100.00;101582.03;5086330;28;20373;-85
2022/09/24 08:00:33;;;;;;;35.45;33.25;;;;;;;15.51;100.00;101583.28;5093190;28;20537;-87
2022/09/24 08:03:01;;;;;;;36.13;33.55;;;;;;;15.95;100.00;101579.66;5093209;28;20044;-85
2022/09/24 08:05:28;;;;;;;35.08;32.97;;;;;;;14.33;100.00;101573.75;5090452;28;20447;-85
2022/09/24 08:07:58;;;;;;;35.80;33.40;;;;;;;14.68;100.00;101583.38;5086065;28;20112;-85
2022/09/24 08:10:27;;;;;;;34.95;32.65;;;;;;;15.24;100.00;101585.31;5080930;28;20130;-86
2022/09/24 08:12:55;;;;;;;34.40;32.28;;;;;;;14.21;100.00;101581.59;5086027;28;20448;-85
2022/09/24 08:15:22;;;;;;;34.65;32.28;;;;;;;15.74;100.00;101590.75;5085010;28;20415;-85
2022/09/24 08:17:52;;;;;;;35.03;32.55;;;;;;;16.74;100.00;101574.44;5090646;28;20048;-85
2022/09/24 08:20:30;;;;;;;34.05;31.75;;;;;;;16.39;100.00;101572.38;5081780;28;20439;-85
2022/09/24 08:23:01;;;;;;;34.60;32.30;;;;;;;17.71;100.00;101570.78;5086995;28;20169;-86
2022/09/24 08:25:33;;;;;;;33.83;31.80;;;;;;;16.84;100.00;101566.69;5094477;28;20478;-85
2022/09/24 08:28:02;;;;;;;33.88;31.85;;;;;;;15.86;100.00;101567.56;4981110;28;20057;-85
2022/09/24 08:30:29;;;;;;;34.72;32.63;;;;;;;16.15;100.00;101562.53;5029820;28;20160;-85
2022/09/24 08:33:09;;;;;;;35.33;33.05;;;;;;;17.26;100.00;101568.59;5033108;28;20049;-85
2022/09/24 08:35:45;;;;;;;35.08;32.97;;;;;;;15.77;100.00;101559.00;5023301;28;20045;-85
2022/09/24 08:38:12;;;;;;;34.90;32.70;;;;;;;18.26;100.00;101554.31;5027032;28;20152;-86
2022/09/24 08:40:56;;;;;;;34.85;32.75;;;;;;;16.53;100.00;101572.25;5030220;28;20437;-84
2022/09/24 08:43:39;;;;;;;35.05;32.80;;;;;;;15.13;100.00;101576.13;5031831;28;20119;-84
2022/09/24 08:49:03;;;;;;;33.97;31.98;;;;;;;17.43;100.00;101572.28;5027891;28;20052;-84
2022/09/24 08:51:45;;;;;;;34.45;32.35;;;;;;;17.20;100.00;101577.56;5020837;28;20088;-85
2022/09/24 08:54:24;;;;;;;35.60;33.50;;;;;;;17.09;100.00;101579.16;5024690;28;20483;-83
2022/09/24 08:57:14;;;;;;;35.63;33.40;;;;;;;18.17;100.00;101569.16;5032861;28;20053;-86
2022/09/24 08:59:47;;;;;;;34.42;32.28;;;;;;;17.58;99.62;101564.59;5033419;28;20049;-86
2022/09/24 09:02:28;;;;;;;35.63;33.42;;;;;;;18.70;100.00;101571.63;5033142;28;20470;-86
2022/09/24 09:05:03;;;;;;;34.55;32.35;;;;;;;17.55;100.00;101572.25;5029927;28;20049;-84
2022/09/24 09:07:35;;;;;;;35.90;33.55;;;;;;;19.12;100.00;101565.97;5028026;28;20077;-86
2022/09/24 09:10:04;;;;;;;35.20;32.42;;;;;;;19.30;90.54;101566.78;5033504;28;20111;-85
2022/09/24 09:12:37;;;;;;;34.50;32.30;;;;;;;18.25;93.08;101568.81;5032980;28;20083;-84
2022/09/24 09:15:09;;;;;;;35.05;32.75;;;;;;;18.27;99.01;101570.19;5033366;28;20049;-84
2022/09/24 09:17:44;;;;;;;39.78;37.17;;;;;;;18.23;95.74;101568.22;5033486;28;20123;-84
2022/09/24 09:20:17;;;;;;;40.10;37.70;;;;;;;18.43;100.00;101568.66;5033517;28;20080;-84
2022/09/24 09:22:48;;;;;;;35.97;33.65;;;;;;;18.70;79.90;101566.25;5032522;28;20114;-85
2022/09/24 09:25:21;;;;;;;34.92;32.83;;;;;;;18.40;93.99;101569.13;5033335;28;20099;-86
2022/09/24 09:27:51;;;;;;;38.53;36.17;;;;;;;18.24;95.30;101569.84;5033423;28;20045;-84
2022/09/24 09:30:20;;;;;;;34.97;32.88;;;;;;;18.33;91.96;101564.91;5036581;28;20115;-85
2022/09/24 09:33:13;;;;;;;37.75;35.50;;;;;;;18.16;79.43;101565.66;5035360;28;20057;-86
2022/09/24 09:35:49;;;;;;;38.83;36.15;;;;;;;20.77;69.29;101561.91;5036858;28;20473;-84
2022/09/24 09:38:22;;;;;;;34.92;32.72;;;;;;;20.70;67.03;101562.09;5037446;28;20123;-85
2022/09/24 09:40:57;;;;;;;34.78;32.67;;;;;;;19.26;77.54;101553.00;5035973;28;20493;-86
2022/09/24 09:43:25;;;;;;;34.17;32.08;;;;;;;18.99;69.95;101547.41;5036196;28;20058;-84
2022/09/24 09:46:04;;;;;;;35.33;33.03;;;;;;;20.01;69.59;101546.38;5036937;28;20124;-86
2022/09/24 09:48:43;;;;;;;36.10;33.90;;;;;;;18.74;68.35;101548.59;5033294;28;20103;-85
2022/09/24 09:51:18;;;;;;;40.50;37.30;;;;;;;20.41;69.57;101539.06;5032291;28;20089;-85
2022/09/24 09:53:54;;;;;;;35.85;33.33;;;;;;;19.56;63.11;101536.53;5033585;28;20053;-85
2022/09/24 09:56:25;;;;;;;38.83;36.15;;;;;;;20.06;62.32;101526.75;5028987;28;20483;-86
2022/09/24 09:58:54;;;;;;;35.30;33.13;;;;;;;20.38;58.93;101526.88;5036052;28;20064;-85
2022/09/24 10:01:32;;;;;;;34.55;32.45;;;;;;;19.94;63.88;101529.56;5030030;28;20480;-85
2022/09/24 10:04:01;;;;;;;35.00;32.80;;;;;;;21.35;53.36;101519.75;5032551;28;20441;-85
2022/09/24 10:06:41;;;;;;;33.58;31.48;;;;;;;20.09;62.54;101524.38;5035762;28;20081;-85
2022/09/24 10:09:12;;;;;;;34.22;32.03;;;;;;;21.16;50.38;101521.25;5037633;28;20548;-84
2022/09/24 10:11:43;;;;;;;34.53;32.33;;;;;;;20.96;52.51;101522.66;5030251;28;20050;-84
2022/09/24 10:14:13;;;;;;;34.83;32.63;;;;;;;21.89;51.81;101521.50;5031136;28;20312;-84
2022/09/24 10:16:42;;;;;;;34.53;32.53;;;;;;;21.92;47.58;101520.97;5036178;28;20051;-84
2022/09/24 10:19:18;;;;;;;35.28;33.17;;;;;;;21.03;44.76;101531.38;5043937;28;20045;-84
2022/09/24 10:21:48;;;;;;;33.10;31.20;;;;;;;21.40;43.42;101530.66;5028224;28;20138;-85
2022/09/24 10:24:26;;;;;;;34.22;32.17;;;;;;;20.19;45.88;101537.19;5034795;28;20525;-84
2022/09/24 10:26:55;;;;;;;33.03;31.02;;;;;;;22.75;42.81;101521.03;5027699;28;20037;-85
2022/09/24 10:32:16;;;;;;;33.15;31.15;;;;;;;20.80;48.53;101519.00;5033031;28;20052;-84
2022/09/24 10:34:56;;;;;;;33.25;31.25;;;;;;;21.38;47.62;101504.94;5034128;28;20053;-83
2022/09/24 10:37:32;;;;;;;33.08;31.05;;;;;;;21.09;43.21;101507.09;5031971;28;20060;-84
2022/09/24 10:40:14;;;;;;;32.63;30.35;;;;;;;20.66;48.55;101506.16;5034819;28;20041;-85
2022/09/24 10:42:41;;;;;;;32.53;30.23;;;;;;;22.62;44.90;101498.00;5037452;28;20045;-84
2022/09/24 10:45:13;;;;;;;33.30;31.40;;;;;;;19.94;45.29;101493.69;5030790;28;20118;-83
2022/09/24 10:47:55;;;;;;;31.83;29.88;;;;;;;22.44;42.20;101484.97;5032714;28;20421;-85
2022/09/24 10:50:34;;;;;;;32.83;30.52;;;;;;;21.00;55.05;101494.09;5027676;28;20054;-85
2022/09/24 10:53:11;;;;;;;33.63;30.85;;;;;;;20.67;56.13;101487.03;5030897;28;20053;-83
2022/09/24 10:55:54;;;;;;;33.85;31.75;;;;;;;20.90;46.36;101488.59;5026920;28;20132;-84
2022/09/24 10:58:37;;;;;;;34.42;32.22;;;;;;;20.30;51.83;101482.31;5034283;28;20109;-83
2022/09/24 11:01:15;;;;;;;33.50;31.40;;;;;;;21.42;48.70;101471.75;5033176;28;20045;-85
2022/09/24 11:04:06;;;;;;;32.78;30.63;;;;;;;23.42;40.28;101465.00;5035207;28;20465;-82
2022/09/24 11:06:47;;;;;;;32.88;30.88;;;;;;;22.58;38.71;101466.31;5028891;28;20057;-82
2022/09/24 11:09:27;;;;;;;32.67;30.67;;;;;;;20.50;49.77;101478.19;5027538;28;20045;-82
2022/09/24 11:12:07;;;;;;;32.65;30.50;;;;;;;21.47;43.32;101460.16;5030498;28;20049;-81
2022/09/24 11:14:51;;;;;;;32.08;30.00;;;;;;;23.35;41.00;101448.19;5031461;28;20474;-82
2022/09/24 11:17:47;;;;;;;32.92;30.73;;;;;;;21.78;42.27;101458.44;5030418;28;20041;-82
2022/09/24 11:20:30;;;;;;;33.25;30.95;;;;;;;22.40;40.13;101454.09;5022691;28;20057;-83
2022/09/24 11:23:27;;;;;;;32.42;30.13;;;;;;;23.11;38.67;101450.66;5032574;28;20049;-80
2022/09/24 11:26:02;;;;;;;32.35;30.15;;;;;;;23.75;37.94;101435.63;5026316;28;20049;-82
2022/09/24 11:29:07;;;;;;;32.03;29.85;;;;;;;22.06;42.41;101442.84;5028957;28;20045;-84
2022/09/24 11:31:41;;;;;;;32.70;30.70;;;;;;;22.41;43.37;101445.69;5026871;28;20041;-82
2022/09/24 11:34:43;;;;;;;33.42;31.33;;;;;;;23.59;39.21;101436.75;5026076;28;20124;-81
2022/09/24 11:37:22;;;;;;;32.92;30.92;;;;;;;21.68;42.58;101436.75;5010209;28;20118;-82
2022/09/24 11:40:03;;;;;;;34.22;31.73;;;;;;;21.60;41.17;101439.97;5025100;28;20874;-81
2022/09/24 11:42:37;;;;;;;33.67;31.38;;;;;;;22.21;40.77;101447.53;5031659;28;20046;-83
2022/09/24 11:45:41;;;;;;;38.90;36.60;;;;;;;21.61;44.35;101441.59;5027235;28;20525;-82
2022/09/24 11:48:35;;;;;;;33.72;31.60;;;;;;;23.18;36.61;101434.13;5031118;28;20474;-82
2022/09/24 11:51:17;;;;;;;34.88;32.58;;;;;;;24.09;36.54;101437.69;5028718;28;20122;-83
2022/09/24 11:54:05;;;;;;;;;;;;;;;;;;;;;
2022/09/24 11:56:46;;;;;;;33.72;31.42;;;;;;;23.86;33.86;101434.50;5027345;28;20042;-80
2022/09/24 11:59:31;;;;;;;32.47;30.48;;;;;;;23.20;36.34;101437.38;5031752;28;20045;-82
2022/09/24 12:02:23;;;;;;;32.63;30.73;;;;;;;23.07;34.91;101430.63;5031067;28;20501;-83
2022/09/24 12:07:51;;;;;;;32.70;30.70;;;;;;;24.09;35.46;101440.41;4324090;28;10000765;-82
2022/09/24 12:11:01;;;;;;;32.42;30.33;;;;;;;23.51;38.66;101440.81;5026202;28;20158;-81
2022/09/24 12:13:34;;;;;;;30.45;28.52;;;;;;;22.46;37.02;101446.81;5028677;28;20374;-83
2022/09/24 12:16:25;;;;;;;;;;;;;;;;;;;;;
2022/09/24 12:18:56;;;;;;;31.98;29.98;;;;;;;26.81;32.03;101434.59;5022078;28;20060;-84
2022/09/24 12:21:42;;;;;;;33.33;30.77;;;;;;;24.19;38.48;101440.34;5027257;28;20065;-82
2022/09/24 12:24:15;;;;;;;32.17;30.17;;;;;;;23.71;35.17;101435.38;5030636;28;20053;-81
2022/09/24 12:26:45;;;;;;;33.83;31.67;;;;;;;23.78;33.46;101437.78;5026221;28;20061;-81
2022/09/24 12:35:17;;;;;;;32.08;29.98;;;;;;;23.77;35.94;101430.75;5028888;28;20056;-83
2022/09/24 12:37:48;;;;;;;31.20;29.10;;;;;;;22.76;43.12;101435.22;5028573;28;20045;-80
2022/09/24 12:40:39;;;;;;;32.33;30.23;;;;;;;21.60;38.65;101438.06;5028558;28;20053;-83
2022/09/24 12:43:19;;;;;;;32.25;29.80;;;;;;;22.43;49.84;101433.81;5027664;28;20449;-83